sensor_id;sensor_type;location;lat;lon;timestamp;P1;durP1;ratioP1;P2;durP2;ratioP2
83404;SDS011;73331;48.168;20.776;2023-12-07T00:00:45;27.63;;;14.65;;
83404;SDS011;73331;48.168;20.776;2023-12-07T00:02:16;31.52;;;14.88;;
83404;SDS011;73331;48.168;20.776;2023-12-07T00:03:46;35.03;;;14.73;;
83404;SDS011;73331;48.168;20.776;2023-12-07T00:05:18;29.52;;;15.00;;
83404;SDS011;73331;48.168;20.776;2023-12-07T00:06:50;36.03;;;16.95;;
83404;SDS011;73331;48.168;20.776;2023-12-07T00:08:21;33.33;;;16.10;;
83404;SDS011;73331;48.168;20.776;2023-12-07T00:09:52;28.35;;;14.57;;
83404;SDS011;73331;48.168;20.776;2023-12-07T00:11:24;32.35;;;15.05;;
83404;SDS011;73331;48.168;20.776;2023-12-07T00:12:55;29.30;;;14.75;;
83404;SDS011;73331;48.168;20.776;2023-12-07T00:14:26;36.05;;;15.00;;
83404;SDS011;73331;48.168;20.776;2023-12-07T00:15:57;31.77;;;14.18;;
83404;SDS011;73331;48.168;20.776;2023-12-07T00:17:28;32.20;;;15.55;;
83404;SDS011;73331;48.168;20.776;2023-12-07T00:18:59;31.70;;;14.98;;
83404;SDS011;73331;48.168;20.776;2023-12-07T00:20:29;37.83;;;15.98;;
83404;SDS011;73331;48.168;20.776;2023-12-07T00:22:00;31.55;;;14.23;;
83404;SDS011;73331;48.168;20.776;2023-12-07T00:23:31;35.17;;;14.80;;
83404;SDS011;73331;48.168;20.776;2023-12-07T00:25:01;35.88;;;16.15;;
83404;SDS011;73331;48.168;20.776;2023-12-07T00:26:32;34.80;;;15.68;;
83404;SDS011;73331;48.168;20.776;2023-12-07T00:28:03;35.70;;;16.23;;
83404;SDS011;73331;48.168;20.776;2023-12-07T00:29:36;33.40;;;14.88;;
83404;SDS011;73331;48.168;20.776;2023-12-07T00:31:07;39.38;;;16.38;;
83404;SDS011;73331;48.168;20.776;2023-12-07T00:32:38;35.30;;;16.95;;
83404;SDS011;73331;48.168;20.776;2023-12-07T00:34:10;33.20;;;16.90;;
83404;SDS011;73331;48.168;20.776;2023-12-07T00:35:41;34.25;;;15.43;;
83404;SDS011;73331;48.168;20.776;2023-12-07T00:37:11;32.25;;;14.95;;
83404;SDS011;73331;48.168;20.776;2023-12-07T00:38:42;32.55;;;15.73;;
83404;SDS011;73331;48.168;20.776;2023-12-07T00:40:12;34.17;;;15.68;;
83404;SDS011;73331;48.168;20.776;2023-12-07T00:41:44;30.10;;;14.80;;
83404;SDS011;73331;48.168;20.776;2023-12-07T00:43:17;32.83;;;15.15;;
83404;SDS011;73331;48.168;20.776;2023-12-07T00:44:47;37.80;;;16.15;;
83404;SDS011;73331;48.168;20.776;2023-12-07T00:46:18;29.50;;;16.13;;
83404;SDS011;73331;48.168;20.776;2023-12-07T00:47:48;31.70;;;17.27;;
83404;SDS011;73331;48.168;20.776;2023-12-07T00:49:19;37.85;;;17.73;;
83404;SDS011;73331;48.168;20.776;2023-12-07T00:50:50;32.85;;;16.25;;
83404;SDS011;73331;48.168;20.776;2023-12-07T00:52:20;30.98;;;16.20;;
83404;SDS011;73331;48.168;20.776;2023-12-07T00:53:51;34.60;;;16.77;;
83404;SDS011;73331;48.168;20.776;2023-12-07T00:55:22;34.10;;;16.75;;
83404;SDS011;73331;48.168;20.776;2023-12-07T00:56:52;31.02;;;17.02;;
83404;SDS011;73331;48.168;20.776;2023-12-07T00:58:23;34.13;;;15.60;;
83404;SDS011;73331;48.168;20.776;2023-12-07T00:59:53;39.95;;;18.45;;
83404;SDS011;73331;48.168;20.776;2023-12-07T01:01:24;33.95;;;17.70;;
83404;SDS011;73331;48.168;20.776;2023-12-07T01:02:55;35.08;;;19.08;;
83404;SDS011;73331;48.168;20.776;2023-12-07T01:04:26;44.30;;;21.42;;
83404;SDS011;73331;48.168;20.776;2023-12-07T01:05:56;45.55;;;20.10;;
83404;SDS011;73331;48.168;20.776;2023-12-07T01:07:27;45.33;;;21.33;;
83404;SDS011;73331;48.168;20.776;2023-12-07T01:08:58;43.10;;;21.85;;
83404;SDS011;73331;48.168;20.776;2023-12-07T01:10:28;47.08;;;21.58;;
83404;SDS011;73331;48.168;20.776;2023-12-07T01:11:59;41.10;;;20.40;;
83404;SDS011;73331;48.168;20.776;2023-12-07T01:13:30;45.22;;;23.55;;
83404;SDS011;73331;48.168;20.776;2023-12-07T01:15:00;53.58;;;23.58;;
83404;SDS011;73331;48.168;20.776;2023-12-07T01:16:31;70.43;;;30.27;;
83404;SDS011;73331;48.168;20.776;2023-12-07T01:18:02;89.57;;;35.53;;
83404;SDS011;73331;48.168;20.776;2023-12-07T01:19:33;73.30;;;30.05;;
83404;SDS011;73331;48.168;20.776;2023-12-07T01:21:04;64.68;;;25.95;;
83404;SDS011;73331;48.168;20.776;2023-12-07T01:22:36;57.15;;;24.50;;
83404;SDS011;73331;48.168;20.776;2023-12-07T01:24:07;47.30;;;21.67;;
83404;SDS011;73331;48.168;20.776;2023-12-07T01:25:38;47.70;;;21.80;;
83404;SDS011;73331;48.168;20.776;2023-12-07T01:27:08;40.28;;;19.13;;
83404;SDS011;73331;48.168;20.776;2023-12-07T01:28:39;38.05;;;18.13;;
83404;SDS011;73331;48.168;20.776;2023-12-07T01:30:10;40.53;;;19.55;;
83404;SDS011;73331;48.168;20.776;2023-12-07T01:31:40;38.40;;;18.27;;
83404;SDS011;73331;48.168;20.776;2023-12-07T01:33:12;38.88;;;18.65;;
83404;SDS011;73331;48.168;20.776;2023-12-07T01:34:42;35.45;;;18.50;;
83404;SDS011;73331;48.168;20.776;2023-12-07T01:36:13;37.70;;;18.02;;
83404;SDS011;73331;48.168;20.776;2023-12-07T01:37:44;36.72;;;17.83;;
83404;SDS011;73331;48.168;20.776;2023-12-07T01:39:14;36.50;;;17.63;;
83404;SDS011;73331;48.168;20.776;2023-12-07T01:40:46;36.25;;;18.00;;
83404;SDS011;73331;48.168;20.776;2023-12-07T01:42:16;35.83;;;19.08;;
83404;SDS011;73331;48.168;20.776;2023-12-07T01:43:47;39.35;;;18.25;;
83404;SDS011;73331;48.168;20.776;2023-12-07T01:45:18;41.67;;;18.95;;
83404;SDS011;73331;48.168;20.776;2023-12-07T01:46:49;36.85;;;18.23;;
83404;SDS011;73331;48.168;20.776;2023-12-07T01:48:20;40.67;;;17.85;;
83404;SDS011;73331;48.168;20.776;2023-12-07T01:49:53;39.05;;;18.38;;
83404;SDS011;73331;48.168;20.776;2023-12-07T01:51:24;38.88;;;17.38;;
83404;SDS011;73331;48.168;20.776;2023-12-07T01:52:57;32.13;;;17.25;;
83404;SDS011;73331;48.168;20.776;2023-12-07T01:54:31;34.35;;;16.60;;
83404;SDS011;73331;48.168;20.776;2023-12-07T01:56:02;34.47;;;16.40;;
83404;SDS011;73331;48.168;20.776;2023-12-07T01:57:34;35.30;;;16.80;;
83404;SDS011;73331;48.168;20.776;2023-12-07T01:59:05;32.58;;;16.38;;
83404;SDS011;73331;48.168;20.776;2023-12-07T02:00:37;32.90;;;15.73;;
83404;SDS011;73331;48.168;20.776;2023-12-07T02:02:08;34.38;;;16.55;;
83404;SDS011;73331;48.168;20.776;2023-12-07T02:03:39;36.53;;;16.38;;
83404;SDS011;73331;48.168;20.776;2023-12-07T02:05:11;34.85;;;16.63;;
83404;SDS011;73331;48.168;20.776;2023-12-07T02:06:43;33.45;;;16.30;;
83404;SDS011;73331;48.168;20.776;2023-12-07T02:08:14;31.70;;;16.63;;
83404;SDS011;73331;48.168;20.776;2023-12-07T02:09:45;34.10;;;18.50;;
83404;SDS011;73331;48.168;20.776;2023-12-07T02:11:16;37.67;;;17.80;;
83404;SDS011;73331;48.168;20.776;2023-12-07T02:14:19;30.23;;;15.25;;
83404;SDS011;73331;48.168;20.776;2023-12-07T02:15:49;30.02;;;15.15;;
83404;SDS011;73331;48.168;20.776;2023-12-07T02:17:21;33.85;;;14.77;;
83404;SDS011;73331;48.168;20.776;2023-12-07T02:19:20;28.70;;;15.98;;
83404;SDS011;73331;48.168;20.776;2023-12-07T02:21:21;27.65;;;13.25;;
83404;SDS011;73331;48.168;20.776;2023-12-07T02:23:00;29.13;;;14.02;;
83404;SDS011;73331;48.168;20.776;2023-12-07T02:24:33;27.10;;;13.55;;
83404;SDS011;73331;48.168;20.776;2023-12-07T02:26:22;29.02;;;14.32;;
83404;SDS011;73331;48.168;20.776;2023-12-07T02:28:04;29.25;;;14.80;;
83404;SDS011;73331;48.168;20.776;2023-12-07T02:29:35;25.55;;;13.00;;
83404;SDS011;73331;48.168;20.776;2023-12-07T02:31:06;29.60;;;13.38;;
83404;SDS011;73331;48.168;20.776;2023-12-07T02:32:37;24.30;;;13.40;;
83404;SDS011;73331;48.168;20.776;2023-12-07T02:35:39;22.35;;;11.15;;
83404;SDS011;73331;48.168;20.776;2023-12-07T02:37:10;24.17;;;13.18;;
83404;SDS011;73331;48.168;20.776;2023-12-07T02:38:41;22.38;;;11.50;;
83404;SDS011;73331;48.168;20.776;2023-12-07T02:40:25;22.75;;;12.32;;
83404;SDS011;73331;48.168;20.776;2023-12-07T02:41:57;20.30;;;11.25;;
83404;SDS011;73331;48.168;20.776;2023-12-07T02:43:28;21.23;;;11.55;;
83404;SDS011;73331;48.168;20.776;2023-12-07T02:44:59;26.00;;;12.35;;
83404;SDS011;73331;48.168;20.776;2023-12-07T02:46:30;26.90;;;12.48;;
83404;SDS011;73331;48.168;20.776;2023-12-07T02:48:01;24.95;;;11.65;;
83404;SDS011;73331;48.168;20.776;2023-12-07T02:49:31;24.08;;;11.15;;
83404;SDS011;73331;48.168;20.776;2023-12-07T02:51:02;24.80;;;11.95;;
83404;SDS011;73331;48.168;20.776;2023-12-07T02:52:33;22.55;;;11.23;;
83404;SDS011;73331;48.168;20.776;2023-12-07T02:54:05;20.88;;;10.93;;
83404;SDS011;73331;48.168;20.776;2023-12-07T02:55:35;22.55;;;10.98;;
83404;SDS011;73331;48.168;20.776;2023-12-07T02:57:06;21.83;;;11.48;;
83404;SDS011;73331;48.168;20.776;2023-12-07T02:58:37;20.92;;;10.68;;
83404;SDS011;73331;48.168;20.776;2023-12-07T03:00:07;19.48;;;11.13;;
83404;SDS011;73331;48.168;20.776;2023-12-07T03:01:38;19.67;;;11.00;;
83404;SDS011;73331;48.168;20.776;2023-12-07T03:03:09;19.38;;;9.55;;
83404;SDS011;73331;48.168;20.776;2023-12-07T03:04:40;18.65;;;9.60;;
83404;SDS011;73331;48.168;20.776;2023-12-07T03:06:10;22.67;;;10.77;;
83404;SDS011;73331;48.168;20.776;2023-12-07T03:07:41;19.73;;;9.35;;
83404;SDS011;73331;48.168;20.776;2023-12-07T03:09:12;17.75;;;9.32;;
83404;SDS011;73331;48.168;20.776;2023-12-07T03:10:43;19.13;;;9.90;;
83404;SDS011;73331;48.168;20.776;2023-12-07T03:12:13;23.13;;;11.30;;
83404;SDS011;73331;48.168;20.776;2023-12-07T03:13:44;18.70;;;9.73;;
83404;SDS011;73331;48.168;20.776;2023-12-07T03:15:14;17.55;;;9.50;;
83404;SDS011;73331;48.168;20.776;2023-12-07T03:16:45;17.75;;;9.48;;
83404;SDS011;73331;48.168;20.776;2023-12-07T03:18:16;20.15;;;9.93;;
83404;SDS011;73331;48.168;20.776;2023-12-07T03:19:47;19.52;;;9.57;;
83404;SDS011;73331;48.168;20.776;2023-12-07T03:21:17;16.85;;;10.02;;
83404;SDS011;73331;48.168;20.776;2023-12-07T03:22:48;19.10;;;9.43;;
83404;SDS011;73331;48.168;20.776;2023-12-07T03:24:19;17.85;;;9.13;;
83404;SDS011;73331;48.168;20.776;2023-12-07T03:25:49;18.58;;;9.15;;
83404;SDS011;73331;48.168;20.776;2023-12-07T03:27:20;19.73;;;9.05;;
83404;SDS011;73331;48.168;20.776;2023-12-07T03:28:51;17.67;;;8.45;;
83404;SDS011;73331;48.168;20.776;2023-12-07T03:30:21;17.65;;;8.82;;
83404;SDS011;73331;48.168;20.776;2023-12-07T03:31:52;15.77;;;8.25;;
83404;SDS011;73331;48.168;20.776;2023-12-07T03:33:23;17.92;;;8.57;;
83404;SDS011;73331;48.168;20.776;2023-12-07T03:34:53;18.00;;;9.50;;
83404;SDS011;73331;48.168;20.776;2023-12-07T03:36:24;15.05;;;8.82;;
83404;SDS011;73331;48.168;20.776;2023-12-07T03:37:54;19.02;;;9.90;;
83404;SDS011;73331;48.168;20.776;2023-12-07T03:39:25;20.35;;;10.27;;
83404;SDS011;73331;48.168;20.776;2023-12-07T03:40:57;20.17;;;9.75;;
83404;SDS011;73331;48.168;20.776;2023-12-07T03:42:27;22.02;;;9.73;;
83404;SDS011;73331;48.168;20.776;2023-12-07T03:43:58;19.48;;;9.10;;
83404;SDS011;73331;48.168;20.776;2023-12-07T03:45:29;18.95;;;9.63;;
83404;SDS011;73331;48.168;20.776;2023-12-07T03:47:00;22.60;;;10.68;;
83404;SDS011;73331;48.168;20.776;2023-12-07T03:48:31;32.65;;;15.52;;
83404;SDS011;73331;48.168;20.776;2023-12-07T03:50:03;26.60;;;12.98;;
83404;SDS011;73331;48.168;20.776;2023-12-07T03:51:34;24.60;;;11.65;;
83404;SDS011;73331;48.168;20.776;2023-12-07T03:53:06;46.92;;;19.80;;
83404;SDS011;73331;48.168;20.776;2023-12-07T03:54:37;34.95;;;15.45;;
83404;SDS011;73331;48.168;20.776;2023-12-07T03:56:08;36.83;;;18.38;;
83404;SDS011;73331;48.168;20.776;2023-12-07T03:57:38;27.38;;;13.90;;
83404;SDS011;73331;48.168;20.776;2023-12-07T03:59:09;23.38;;;11.48;;
83404;SDS011;73331;48.168;20.776;2023-12-07T04:00:40;25.13;;;11.80;;
83404;SDS011;73331;48.168;20.776;2023-12-07T04:02:10;27.67;;;13.73;;
83404;SDS011;73331;48.168;20.776;2023-12-07T04:03:41;26.23;;;11.93;;
83404;SDS011;73331;48.168;20.776;2023-12-07T04:05:13;25.67;;;12.52;;
83404;SDS011;73331;48.168;20.776;2023-12-07T04:06:44;22.63;;;10.88;;
83404;SDS011;73331;48.168;20.776;2023-12-07T04:08:15;20.40;;;11.45;;
83404;SDS011;73331;48.168;20.776;2023-12-07T04:09:46;24.58;;;10.73;;
83404;SDS011;73331;48.168;20.776;2023-12-07T04:11:16;18.38;;;10.48;;
83404;SDS011;73331;48.168;20.776;2023-12-07T04:12:47;23.92;;;11.75;;
83404;SDS011;73331;48.168;20.776;2023-12-07T04:14:18;26.80;;;11.60;;
83404;SDS011;73331;48.168;20.776;2023-12-07T04:15:48;22.92;;;11.43;;
83404;SDS011;73331;48.168;20.776;2023-12-07T04:17:19;32.40;;;13.73;;
83404;SDS011;73331;48.168;20.776;2023-12-07T04:18:51;31.45;;;14.70;;
83404;SDS011;73331;48.168;20.776;2023-12-07T04:20:22;31.58;;;13.93;;
83404;SDS011;73331;48.168;20.776;2023-12-07T04:21:52;29.55;;;14.25;;
83404;SDS011;73331;48.168;20.776;2023-12-07T04:23:23;30.95;;;14.05;;
83404;SDS011;73331;48.168;20.776;2023-12-07T04:24:53;33.13;;;15.02;;
83404;SDS011;73331;48.168;20.776;2023-12-07T04:26:24;34.75;;;15.95;;
83404;SDS011;73331;48.168;20.776;2023-12-07T04:27:55;38.25;;;15.52;;
83404;SDS011;73331;48.168;20.776;2023-12-07T04:29:25;34.00;;;15.63;;
83404;SDS011;73331;48.168;20.776;2023-12-07T04:30:56;39.33;;;17.48;;
83404;SDS011;73331;48.168;20.776;2023-12-07T04:32:27;31.65;;;15.13;;
83404;SDS011;73331;48.168;20.776;2023-12-07T04:33:57;33.75;;;18.05;;
83404;SDS011;73331;48.168;20.776;2023-12-07T04:35:30;34.97;;;17.50;;
83404;SDS011;73331;48.168;20.776;2023-12-07T04:37:01;34.63;;;16.85;;
83404;SDS011;73331;48.168;20.776;2023-12-07T04:38:31;37.92;;;16.85;;
83404;SDS011;73331;48.168;20.776;2023-12-07T04:40:02;35.63;;;17.23;;
83404;SDS011;73331;48.168;20.776;2023-12-07T04:41:35;43.13;;;20.13;;
83404;SDS011;73331;48.168;20.776;2023-12-07T04:43:06;38.85;;;17.77;;
83404;SDS011;73331;48.168;20.776;2023-12-07T04:44:36;32.95;;;16.70;;
83404;SDS011;73331;48.168;20.776;2023-12-07T04:46:07;40.53;;;17.42;;
83404;SDS011;73331;48.168;20.776;2023-12-07T04:47:37;41.67;;;19.70;;
83404;SDS011;73331;48.168;20.776;2023-12-07T04:49:08;106.38;;;42.25;;
83404;SDS011;73331;48.168;20.776;2023-12-07T04:50:39;95.60;;;40.60;;
83404;SDS011;73331;48.168;20.776;2023-12-07T04:52:10;42.15;;;18.52;;
83404;SDS011;73331;48.168;20.776;2023-12-07T04:53:40;106.97;;;45.38;;
83404;SDS011;73331;48.168;20.776;2023-12-07T04:55:11;71.32;;;33.67;;
83404;SDS011;73331;48.168;20.776;2023-12-07T04:56:42;41.42;;;19.92;;
83404;SDS011;73331;48.168;20.776;2023-12-07T04:58:12;44.42;;;23.05;;
83404;SDS011;73331;48.168;20.776;2023-12-07T04:59:43;33.63;;;17.83;;
83404;SDS011;73331;48.168;20.776;2023-12-07T05:01:17;32.13;;;15.77;;
83404;SDS011;73331;48.168;20.776;2023-12-07T05:04:19;40.97;;;17.20;;
83404;SDS011;73331;48.168;20.776;2023-12-07T05:05:50;39.08;;;16.80;;
83404;SDS011;73331;48.168;20.776;2023-12-07T05:07:20;43.70;;;19.00;;
83404;SDS011;73331;48.168;20.776;2023-12-07T05:08:51;63.15;;;25.88;;
83404;SDS011;73331;48.168;20.776;2023-12-07T05:10:22;57.25;;;23.33;;
83404;SDS011;73331;48.168;20.776;2023-12-07T05:11:52;71.15;;;27.70;;
83404;SDS011;73331;48.168;20.776;2023-12-07T05:13:23;65.38;;;26.80;;
83404;SDS011;73331;48.168;20.776;2023-12-07T05:14:54;60.63;;;27.90;;
83404;SDS011;73331;48.168;20.776;2023-12-07T05:16:24;84.50;;;31.85;;
83404;SDS011;73331;48.168;20.776;2023-12-07T05:17:55;73.85;;;30.42;;
83404;SDS011;73331;48.168;20.776;2023-12-07T05:19:26;77.55;;;30.67;;
83404;SDS011;73331;48.168;20.776;2023-12-07T05:20:56;77.05;;;30.10;;
83404;SDS011;73331;48.168;20.776;2023-12-07T05:22:27;61.30;;;26.52;;
83404;SDS011;73331;48.168;20.776;2023-12-07T05:23:58;55.42;;;23.50;;
83404;SDS011;73331;48.168;20.776;2023-12-07T05:25:28;61.38;;;24.33;;
83404;SDS011;73331;48.168;20.776;2023-12-07T05:26:59;46.53;;;22.00;;
83404;SDS011;73331;48.168;20.776;2023-12-07T05:28:30;60.80;;;24.35;;
83404;SDS011;73331;48.168;20.776;2023-12-07T05:30:01;53.08;;;21.45;;
83404;SDS011;73331;48.168;20.776;2023-12-07T05:31:31;55.50;;;23.65;;
83404;SDS011;73331;48.168;20.776;2023-12-07T05:33:02;56.88;;;22.83;;
83404;SDS011;73331;48.168;20.776;2023-12-07T05:34:33;66.50;;;26.75;;
83404;SDS011;73331;48.168;20.776;2023-12-07T05:36:05;68.93;;;27.80;;
83404;SDS011;73331;48.168;20.776;2023-12-07T05:37:36;63.40;;;25.25;;
83404;SDS011;73331;48.168;20.776;2023-12-07T05:39:07;50.53;;;22.25;;
83404;SDS011;73331;48.168;20.776;2023-12-07T05:40:38;50.25;;;21.90;;
83404;SDS011;73331;48.168;20.776;2023-12-07T05:42:08;47.22;;;19.85;;
83404;SDS011;73331;48.168;20.776;2023-12-07T05:43:42;42.60;;;18.60;;
83404;SDS011;73331;48.168;20.776;2023-12-07T05:45:13;43.33;;;17.83;;
83404;SDS011;73331;48.168;20.776;2023-12-07T05:46:44;45.90;;;19.65;;
83404;SDS011;73331;48.168;20.776;2023-12-07T05:48:15;39.17;;;18.48;;
83404;SDS011;73331;48.168;20.776;2023-12-07T05:49:45;40.88;;;20.30;;
83404;SDS011;73331;48.168;20.776;2023-12-07T05:51:16;39.28;;;19.70;;
83404;SDS011;73331;48.168;20.776;2023-12-07T05:52:48;46.03;;;20.88;;
83404;SDS011;73331;48.168;20.776;2023-12-07T05:54:19;49.53;;;20.52;;
83404;SDS011;73331;48.168;20.776;2023-12-07T05:55:53;45.17;;;20.27;;
83404;SDS011;73331;48.168;20.776;2023-12-07T05:57:24;46.92;;;20.77;;
83404;SDS011;73331;48.168;20.776;2023-12-07T05:58:55;41.45;;;19.83;;
83404;SDS011;73331;48.168;20.776;2023-12-07T06:00:27;40.45;;;21.60;;
83404;SDS011;73331;48.168;20.776;2023-12-07T06:01:57;41.53;;;18.05;;
83404;SDS011;73331;48.168;20.776;2023-12-07T06:03:28;38.22;;;17.80;;
83404;SDS011;73331;48.168;20.776;2023-12-07T06:04:59;36.72;;;17.13;;
83404;SDS011;73331;48.168;20.776;2023-12-07T06:06:30;40.00;;;18.70;;
83404;SDS011;73331;48.168;20.776;2023-12-07T06:08:01;36.85;;;17.17;;
83404;SDS011;73331;48.168;20.776;2023-12-07T06:09:33;34.67;;;18.15;;
83404;SDS011;73331;48.168;20.776;2023-12-07T06:11:04;36.35;;;17.98;;
83404;SDS011;73331;48.168;20.776;2023-12-07T06:12:35;31.50;;;16.25;;
83404;SDS011;73331;48.168;20.776;2023-12-07T06:14:06;36.13;;;19.08;;
83404;SDS011;73331;48.168;20.776;2023-12-07T06:15:37;45.70;;;17.90;;
83404;SDS011;73331;48.168;20.776;2023-12-07T06:17:08;40.78;;;18.73;;
83404;SDS011;73331;48.168;20.776;2023-12-07T06:18:39;37.13;;;17.25;;
83404;SDS011;73331;48.168;20.776;2023-12-07T06:20:11;34.42;;;16.35;;
83404;SDS011;73331;48.168;20.776;2023-12-07T06:21:43;32.58;;;15.35;;
83404;SDS011;73331;48.168;20.776;2023-12-07T06:23:17;30.25;;;14.50;;
83404;SDS011;73331;48.168;20.776;2023-12-07T06:24:48;33.58;;;14.80;;
83404;SDS011;73331;48.168;20.776;2023-12-07T06:26:20;34.33;;;14.98;;
83404;SDS011;73331;48.168;20.776;2023-12-07T06:27:50;36.72;;;16.33;;
83404;SDS011;73331;48.168;20.776;2023-12-07T06:29:21;39.45;;;17.83;;
83404;SDS011;73331;48.168;20.776;2023-12-07T06:30:52;41.05;;;17.95;;
83404;SDS011;73331;48.168;20.776;2023-12-07T06:32:23;43.85;;;18.23;;
83404;SDS011;73331;48.168;20.776;2023-12-07T06:33:54;38.38;;;18.05;;
83404;SDS011;73331;48.168;20.776;2023-12-07T06:35:25;39.75;;;16.90;;
83404;SDS011;73331;48.168;20.776;2023-12-07T06:36:56;34.63;;;16.95;;
83404;SDS011;73331;48.168;20.776;2023-12-07T06:38:27;39.08;;;18.17;;
83404;SDS011;73331;48.168;20.776;2023-12-07T06:39:57;42.70;;;19.52;;
83404;SDS011;73331;48.168;20.776;2023-12-07T06:41:30;38.78;;;19.38;;
83404;SDS011;73331;48.168;20.776;2023-12-07T06:43:00;35.42;;;16.92;;
83404;SDS011;73331;48.168;20.776;2023-12-07T06:44:32;41.97;;;18.92;;
83404;SDS011;73331;48.168;20.776;2023-12-07T06:46:03;40.42;;;19.33;;
83404;SDS011;73331;48.168;20.776;2023-12-07T06:47:33;40.22;;;19.27;;
83404;SDS011;73331;48.168;20.776;2023-12-07T06:49:04;39.15;;;19.17;;
83404;SDS011;73331;48.168;20.776;2023-12-07T06:50:35;46.10;;;19.67;;
83404;SDS011;73331;48.168;20.776;2023-12-07T06:52:06;43.42;;;19.52;;
83404;SDS011;73331;48.168;20.776;2023-12-07T06:53:37;48.85;;;20.75;;
83404;SDS011;73331;48.168;20.776;2023-12-07T06:55:08;38.95;;;19.55;;
83404;SDS011;73331;48.168;20.776;2023-12-07T06:56:42;40.90;;;19.48;;
83404;SDS011;73331;48.168;20.776;2023-12-07T06:58:13;46.30;;;20.23;;
83404;SDS011;73331;48.168;20.776;2023-12-07T06:59:44;41.38;;;18.40;;
83404;SDS011;73331;48.168;20.776;2023-12-07T07:01:14;36.90;;;18.60;;
83404;SDS011;73331;48.168;20.776;2023-12-07T07:02:45;36.95;;;17.20;;
83404;SDS011;73331;48.168;20.776;2023-12-07T07:04:16;40.42;;;18.90;;
83404;SDS011;73331;48.168;20.776;2023-12-07T07:05:47;39.13;;;18.23;;
83404;SDS011;73331;48.168;20.776;2023-12-07T07:07:18;38.45;;;19.63;;
83404;SDS011;73331;48.168;20.776;2023-12-07T07:08:49;43.42;;;19.98;;
83404;SDS011;73331;48.168;20.776;2023-12-07T07:10:19;46.25;;;20.83;;
83404;SDS011;73331;48.168;20.776;2023-12-07T07:11:50;43.88;;;20.00;;
83404;SDS011;73331;48.168;20.776;2023-12-07T07:13:21;38.25;;;19.02;;
83404;SDS011;73331;48.168;20.776;2023-12-07T07:14:52;37.42;;;18.80;;
83404;SDS011;73331;48.168;20.776;2023-12-07T07:16:23;44.60;;;19.58;;
83404;SDS011;73331;48.168;20.776;2023-12-07T07:17:55;41.63;;;20.48;;
83404;SDS011;73331;48.168;20.776;2023-12-07T07:19:26;39.45;;;19.05;;
83404;SDS011;73331;48.168;20.776;2023-12-07T07:20:56;45.60;;;20.10;;
83404;SDS011;73331;48.168;20.776;2023-12-07T07:22:27;39.47;;;19.90;;
83404;SDS011;73331;48.168;20.776;2023-12-07T07:23:58;45.47;;;20.52;;
83404;SDS011;73331;48.168;20.776;2023-12-07T07:25:28;38.95;;;18.65;;
83404;SDS011;73331;48.168;20.776;2023-12-07T07:26:59;38.28;;;19.35;;
83404;SDS011;73331;48.168;20.776;2023-12-07T07:28:31;34.17;;;16.55;;
83404;SDS011;73331;48.168;20.776;2023-12-07T07:30:01;36.17;;;15.73;;
83404;SDS011;73331;48.168;20.776;2023-12-07T07:31:34;33.38;;;16.73;;
83404;SDS011;73331;48.168;20.776;2023-12-07T07:34:37;33.30;;;16.02;;
83404;SDS011;73331;48.168;20.776;2023-12-07T07:36:08;31.17;;;14.77;;
83404;SDS011;73331;48.168;20.776;2023-12-07T07:37:39;29.92;;;14.18;;
83404;SDS011;73331;48.168;20.776;2023-12-07T07:39:09;28.63;;;13.35;;
83404;SDS011;73331;48.168;20.776;2023-12-07T07:40:41;24.88;;;12.73;;
83404;SDS011;73331;48.168;20.776;2023-12-07T07:42:12;27.67;;;13.38;;
83404;SDS011;73331;48.168;20.776;2023-12-07T07:43:42;25.73;;;13.52;;
83404;SDS011;73331;48.168;20.776;2023-12-07T07:45:13;25.77;;;12.05;;
83404;SDS011;73331;48.168;20.776;2023-12-07T07:46:44;25.02;;;11.68;;
83404;SDS011;73331;48.168;20.776;2023-12-07T07:48:16;25.13;;;12.68;;
83404;SDS011;73331;48.168;20.776;2023-12-07T07:49:47;22.98;;;11.50;;
83404;SDS011;73331;48.168;20.776;2023-12-07T07:51:17;25.70;;;13.25;;
83404;SDS011;73331;48.168;20.776;2023-12-07T07:52:48;26.58;;;11.35;;
83404;SDS011;73331;48.168;20.776;2023-12-07T07:54:19;22.52;;;12.32;;
83404;SDS011;73331;48.168;20.776;2023-12-07T07:55:50;22.48;;;11.35;;
83404;SDS011;73331;48.168;20.776;2023-12-07T07:57:21;22.70;;;11.38;;
83404;SDS011;73331;48.168;20.776;2023-12-07T07:58:51;20.75;;;10.75;;
83404;SDS011;73331;48.168;20.776;2023-12-07T08:00:22;22.40;;;11.25;;
83404;SDS011;73331;48.168;20.776;2023-12-07T08:01:56;20.55;;;10.85;;
83404;SDS011;73331;48.168;20.776;2023-12-07T08:03:27;18.30;;;10.10;;
83404;SDS011;73331;48.168;20.776;2023-12-07T08:04:58;21.10;;;9.93;;
83404;SDS011;73331;48.168;20.776;2023-12-07T08:06:28;23.63;;;11.95;;
83404;SDS011;73331;48.168;20.776;2023-12-07T08:07:59;22.73;;;11.20;;
83404;SDS011;73331;48.168;20.776;2023-12-07T08:09:29;20.95;;;11.05;;
83404;SDS011;73331;48.168;20.776;2023-12-07T08:11:00;24.13;;;11.60;;
83404;SDS011;73331;48.168;20.776;2023-12-07T08:12:31;20.13;;;9.95;;
83404;SDS011;73331;48.168;20.776;2023-12-07T08:14:03;20.38;;;9.80;;
83404;SDS011;73331;48.168;20.776;2023-12-07T08:15:34;21.35;;;9.85;;
83404;SDS011;73331;48.168;20.776;2023-12-07T08:17:05;18.63;;;9.70;;
83404;SDS011;73331;48.168;20.776;2023-12-07T08:18:36;17.70;;;10.07;;
83404;SDS011;73331;48.168;20.776;2023-12-07T08:20:07;17.80;;;9.80;;
83404;SDS011;73331;48.168;20.776;2023-12-07T08:21:39;15.73;;;8.30;;
83404;SDS011;73331;48.168;20.776;2023-12-07T08:23:10;16.33;;;8.57;;
83404;SDS011;73331;48.168;20.776;2023-12-07T08:24:41;17.63;;;8.95;;
83404;SDS011;73331;48.168;20.776;2023-12-07T08:26:11;17.10;;;9.45;;
83404;SDS011;73331;48.168;20.776;2023-12-07T08:27:44;14.93;;;8.73;;
83404;SDS011;73331;48.168;20.776;2023-12-07T08:29:16;14.93;;;8.45;;
83404;SDS011;73331;48.168;20.776;2023-12-07T08:30:46;14.15;;;8.35;;
83404;SDS011;73331;48.168;20.776;2023-12-07T08:32:17;13.90;;;8.23;;
83404;SDS011;73331;48.168;20.776;2023-12-07T08:33:52;12.98;;;6.57;;
83404;SDS011;73331;48.168;20.776;2023-12-07T08:35:23;13.60;;;7.43;;
83404;SDS011;73331;48.168;20.776;2023-12-07T08:36:53;12.57;;;7.90;;
83404;SDS011;73331;48.168;20.776;2023-12-07T08:38:24;11.90;;;7.47;;
83404;SDS011;73331;48.168;20.776;2023-12-07T08:39:55;12.48;;;6.82;;
83404;SDS011;73331;48.168;20.776;2023-12-07T08:41:25;13.48;;;6.60;;
83404;SDS011;73331;48.168;20.776;2023-12-07T08:42:56;13.98;;;7.53;;
83404;SDS011;73331;48.168;20.776;2023-12-07T08:44:27;12.20;;;6.90;;
83404;SDS011;73331;48.168;20.776;2023-12-07T08:45:57;11.95;;;6.68;;
83404;SDS011;73331;48.168;20.776;2023-12-07T08:47:28;14.75;;;7.45;;
83404;SDS011;73331;48.168;20.776;2023-12-07T08:49:01;13.75;;;7.72;;
83404;SDS011;73331;48.168;20.776;2023-12-07T08:50:31;14.32;;;7.45;;
83404;SDS011;73331;48.168;20.776;2023-12-07T08:52:02;12.05;;;6.75;;
83404;SDS011;73331;48.168;20.776;2023-12-07T08:53:33;13.68;;;7.55;;